Lazy Lake, Florida
Current Conditions -  °F | °C
As of 3:53 PM on Friday 24 Oct 2014 (Local Time) from KFXE Reporting Station
Overcast Overcast  
Wind Chill: 78°   Ceiling: 3900
Heat Index: 80°   Visibility: 10mi
Dew Point: 66°   Wind: 15mph
Humidity: 66%   Direction: 50°NE
Pressure: 29.81"   Gusts: 23mph
Location:  26.1532°N, 80.1262°W
Report Text: KFXE 241953Z 05013G20KT 10SM OVC039 26/19 A2981 RMK AO2 SLP098 T02560189
Loading
Personal Weather Stations






























Interactive Weather Map
Tropical Storm Tracking
New forecast layout! Learn more

10-Day Weather Forecast

Advertisements
Track Severe Weather on mobile